sensor_id;sensor_type;location;lat;lon;timestamp;temperature;humidity
38464;DHT22;24243;51.956;5.902;2023-08-24T00:01:08;26.40;52.80
38464;DHT22;24243;51.956;5.902;2023-08-24T00:03:53;26.40;52.80
38464;DHT22;24243;51.956;5.902;2023-08-24T00:06:19;26.40;52.80
38464;DHT22;24243;51.956;5.902;2023-08-24T00:08:44;26.40;52.80
38464;DHT22;24243;51.956;5.902;2023-08-24T00:11:10;26.40;52.80
38464;DHT22;24243;51.956;5.902;2023-08-24T00:13:43;26.40;52.80
38464;DHT22;24243;51.956;5.902;2023-08-24T00:16:15;26.40;52.80
38464;DHT22;24243;51.956;5.902;2023-08-24T00:18:41;26.40;52.80
38464;DHT22;24243;51.956;5.902;2023-08-24T00:21:07;26.40;52.80
38464;DHT22;24243;51.956;5.902;2023-08-24T00:23:33;26.40;52.90
38464;DHT22;24243;51.956;5.902;2023-08-24T00:26:17;26.40;52.80
38464;DHT22;24243;51.956;5.902;2023-08-24T00:28:43;26.40;52.80
38464;DHT22;24243;51.956;5.902;2023-08-24T00:31:08;26.40;52.80
38464;DHT22;24243;51.956;5.902;2023-08-24T00:33:34;26.40;52.90
38464;DHT22;24243;51.956;5.902;2023-08-24T00:36:03;26.40;52.90
38464;DHT22;24243;51.956;5.902;2023-08-24T00:38:29;26.40;52.90
38464;DHT22;24243;51.956;5.902;2023-08-24T00:40:55;26.40;52.90
38464;DHT22;24243;51.956;5.902;2023-08-24T00:43:20;26.40;52.90
38464;DHT22;24243;51.956;5.902;2023-08-24T00:45:52;26.40;52.90
38464;DHT22;24243;51.956;5.902;2023-08-24T00:48:19;26.40;52.90
38464;DHT22;24243;51.956;5.902;2023-08-24T00:50:45;26.40;52.90
38464;DHT22;24243;51.956;5.902;2023-08-24T00:53:11;26.40;52.90
38464;DHT22;24243;51.956;5.902;2023-08-24T00:55:36;26.30;52.80
38464;DHT22;24243;51.956;5.902;2023-08-24T00:58:02;26.40;52.90
38464;DHT22;24243;51.956;5.902;2023-08-24T01:00:28;26.40;52.90
38464;DHT22;24243;51.956;5.902;2023-08-24T01:02:54;26.40;53.00
38464;DHT22;24243;51.956;5.902;2023-08-24T01:05:19;26.30;52.80
38464;DHT22;24243;51.956;5.902;2023-08-24T01:07:45;26.30;52.80
38464;DHT22;24243;51.956;5.902;2023-08-24T01:10:11;26.40;52.90
38464;DHT22;24243;51.956;5.902;2023-08-24T01:17:28;26.30;52.90
38464;DHT22;24243;51.956;5.902;2023-08-24T01:19:55;26.30;52.90
38464;DHT22;24243;51.956;5.902;2023-08-24T01:24:53;26.30;52.90
38464;DHT22;24243;51.956;5.902;2023-08-24T01:27:19;26.30;52.90
38464;DHT22;24243;51.956;5.902;2023-08-24T01:29:46;26.40;53.00
38464;DHT22;24243;51.956;5.902;2023-08-24T01:32:11;26.30;52.90
38464;DHT22;24243;51.956;5.902;2023-08-24T01:34:37;26.30;52.80
38464;DHT22;24243;51.956;5.902;2023-08-24T01:37:04;26.30;52.90
38464;DHT22;24243;51.956;5.902;2023-08-24T01:39:35;26.30;52.90
38464;DHT22;24243;51.956;5.902;2023-08-24T01:42:03;26.30;52.90
38464;DHT22;24243;51.956;5.902;2023-08-24T01:44:32;26.30;52.90
38464;DHT22;24243;51.956;5.902;2023-08-24T01:47:01;26.30;52.90
38464;DHT22;24243;51.956;5.902;2023-08-24T01:49:28;26.30;52.90
38464;DHT22;24243;51.956;5.902;2023-08-24T01:51:54;26.30;52.90
38464;DHT22;24243;51.956;5.902;2023-08-24T01:54:20;26.30;52.90
38464;DHT22;24243;51.956;5.902;2023-08-24T01:56:46;26.30;53.00
38464;DHT22;24243;51.956;5.902;2023-08-24T01:59:11;26.30;53.00
38464;DHT22;24243;51.956;5.902;2023-08-24T02:01:37;26.30;53.00
38464;DHT22;24243;51.956;5.902;2023-08-24T02:04:02;26.30;53.00
38464;DHT22;24243;51.956;5.902;2023-08-24T02:06:28;26.30;53.00
38464;DHT22;24243;51.956;5.902;2023-08-24T02:08:54;26.30;53.00
38464;DHT22;24243;51.956;5.902;2023-08-24T02:11:19;26.30;53.00
38464;DHT22;24243;51.956;5.902;2023-08-24T02:13:45;26.30;53.00
38464;DHT22;24243;51.956;5.902;2023-08-24T02:16:10;26.30;53.00
38464;DHT22;24243;51.956;5.902;2023-08-24T02:18:37;26.30;53.00
38464;DHT22;24243;51.956;5.902;2023-08-24T02:21:06;26.30;53.00
38464;DHT22;24243;51.956;5.902;2023-08-24T02:23:32;26.20;52.90
38464;DHT22;24243;51.956;5.902;2023-08-24T02:25:58;26.30;53.00
38464;DHT22;24243;51.956;5.902;2023-08-24T02:28:24;26.30;53.00
38464;DHT22;24243;51.956;5.902;2023-08-24T02:30:49;26.30;53.00
38464;DHT22;24243;51.956;5.902;2023-08-24T02:33:15;26.20;52.90
38464;DHT22;24243;51.956;5.902;2023-08-24T02:35:40;26.30;53.00
38464;DHT22;24243;51.956;5.902;2023-08-24T02:38:06;26.30;53.00
38464;DHT22;24243;51.956;5.902;2023-08-24T02:40:32;26.20;53.00
38464;DHT22;24243;51.956;5.902;2023-08-24T02:42:57;26.20;53.00
38464;DHT22;24243;51.956;5.902;2023-08-24T02:45:23;26.30;53.10
38464;DHT22;24243;51.956;5.902;2023-08-24T02:47:48;26.30;53.10
38464;DHT22;24243;51.956;5.902;2023-08-24T02:50:14;26.20;53.00
38464;DHT22;24243;51.956;5.902;2023-08-24T02:52:40;26.30;53.10
38464;DHT22;24243;51.956;5.902;2023-08-24T02:55:05;26.20;53.00
38464;DHT22;24243;51.956;5.902;2023-08-24T02:57:31;26.30;53.10
38464;DHT22;24243;51.956;5.902;2023-08-24T02:59:57;26.20;53.00
38464;DHT22;24243;51.956;5.902;2023-08-24T03:02:22;26.20;53.00
38464;DHT22;24243;51.956;5.902;2023-08-24T03:04:48;26.20;53.00
38464;DHT22;24243;51.956;5.902;2023-08-24T03:07:13;26.20;53.10
38464;DHT22;24243;51.956;5.902;2023-08-24T03:09:39;26.20;53.00
38464;DHT22;24243;51.956;5.902;2023-08-24T03:12:04;26.30;53.10
38464;DHT22;24243;51.956;5.902;2023-08-24T03:14:30;26.30;53.10
38464;DHT22;24243;51.956;5.902;2023-08-24T03:16:56;26.20;53.10
38464;DHT22;24243;51.956;5.902;2023-08-24T03:19:21;26.30;53.20
38464;DHT22;24243;51.956;5.902;2023-08-24T03:21:47;26.20;53.10
38464;DHT22;24243;51.956;5.902;2023-08-24T03:24:12;26.30;53.20
38464;DHT22;24243;51.956;5.902;2023-08-24T03:26:38;26.20;53.10
38464;DHT22;24243;51.956;5.902;2023-08-24T03:29:03;26.30;53.10
38464;DHT22;24243;51.956;5.902;2023-08-24T03:31:29;26.30;53.20
38464;DHT22;24243;51.956;5.902;2023-08-24T03:33:55;26.20;53.10
38464;DHT22;24243;51.956;5.902;2023-08-24T03:36:20;26.30;53.20
38464;DHT22;24243;51.956;5.902;2023-08-24T03:38:46;26.20;53.10
38464;DHT22;24243;51.956;5.902;2023-08-24T03:41:12;26.20;53.10
38464;DHT22;24243;51.956;5.902;2023-08-24T03:43:37;26.20;53.10
38464;DHT22;24243;51.956;5.902;2023-08-24T03:46:04;26.20;53.10
38464;DHT22;24243;51.956;5.902;2023-08-24T03:48:31;26.20;53.20
38464;DHT22;24243;51.956;5.902;2023-08-24T03:50:57;26.20;53.10
38464;DHT22;24243;51.956;5.902;2023-08-24T03:53:23;26.20;53.20
38464;DHT22;24243;51.956;5.902;2023-08-24T03:55:49;26.20;53.20
38464;DHT22;24243;51.956;5.902;2023-08-24T03:58:15;26.20;53.20
38464;DHT22;24243;51.956;5.902;2023-08-24T04:00:40;26.20;53.20
38464;DHT22;24243;51.956;5.902;2023-08-24T04:03:07;26.20;53.20
38464;DHT22;24243;51.956;5.902;2023-08-24T04:05:33;26.20;53.20
38464;DHT22;24243;51.956;5.902;2023-08-24T04:07:58;26.20;53.20
38464;DHT22;24243;51.956;5.902;2023-08-24T04:10:26;26.20;53.20
38464;DHT22;24243;51.956;5.902;2023-08-24T04:12:52;26.20;53.20
38464;DHT22;24243;51.956;5.902;2023-08-24T04:15:18;26.20;53.20
38464;DHT22;24243;51.956;5.902;2023-08-24T04:17:46;26.20;53.20
38464;DHT22;24243;51.956;5.902;2023-08-24T04:20:12;26.20;53.20
38464;DHT22;24243;51.956;5.902;2023-08-24T04:22:38;26.20;53.30
38464;DHT22;24243;51.956;5.902;2023-08-24T04:25:03;26.20;53.20
38464;DHT22;24243;51.956;5.902;2023-08-24T04:27:29;26.20;53.30
38464;DHT22;24243;51.956;5.902;2023-08-24T04:29:55;26.20;53.30
38464;DHT22;24243;51.956;5.902;2023-08-24T04:32:21;26.20;53.30
38464;DHT22;24243;51.956;5.902;2023-08-24T04:34:47;26.20;53.30
38464;DHT22;24243;51.956;5.902;2023-08-24T04:37:12;26.20;53.30
38464;DHT22;24243;51.956;5.902;2023-08-24T04:39:38;26.20;53.30
38464;DHT22;24243;51.956;5.902;2023-08-24T04:42:04;26.20;53.30
38464;DHT22;24243;51.956;5.902;2023-08-24T04:44:29;26.20;53.30
38464;DHT22;24243;51.956;5.902;2023-08-24T04:46:55;26.20;53.30
38464;DHT22;24243;51.956;5.902;2023-08-24T04:49:20;26.20;53.30
38464;DHT22;24243;51.956;5.902;2023-08-24T04:51:46;26.20;53.30
38464;DHT22;24243;51.956;5.902;2023-08-24T04:54:12;26.20;53.30
38464;DHT22;24243;51.956;5.902;2023-08-24T04:56:37;26.20;53.30
38464;DHT22;24243;51.956;5.902;2023-08-24T04:59:03;26.20;53.30
38464;DHT22;24243;51.956;5.902;2023-08-24T05:01:28;26.20;53.30
38464;DHT22;24243;51.956;5.902;2023-08-24T05:03:57;26.20;53.30
38464;DHT22;24243;51.956;5.902;2023-08-24T05:06:22;26.20;53.30
38464;DHT22;24243;51.956;5.902;2023-08-24T05:08:48;26.20;53.40
38464;DHT22;24243;51.956;5.902;2023-08-24T05:11:17;26.20;53.40
38464;DHT22;24243;51.956;5.902;2023-08-24T05:13:43;26.20;53.40
38464;DHT22;24243;51.956;5.902;2023-08-24T05:16:09;26.20;53.40
38464;DHT22;24243;51.956;5.902;2023-08-24T05:18:34;26.20;53.40
38464;DHT22;24243;51.956;5.902;2023-08-24T05:21:03;26.20;53.40
38464;DHT22;24243;51.956;5.902;2023-08-24T05:23:29;26.20;53.40
38464;DHT22;24243;51.956;5.902;2023-08-24T05:25:58;26.20;53.40
38464;DHT22;24243;51.956;5.902;2023-08-24T05:28:24;26.20;54.10
38464;DHT22;24243;51.956;5.902;2023-08-24T05:30:53;26.20;53.50
38464;DHT22;24243;51.956;5.902;2023-08-24T05:33:19;26.20;53.50
38464;DHT22;24243;51.956;5.902;2023-08-24T05:35:46;26.10;53.50
38464;DHT22;24243;51.956;5.902;2023-08-24T05:38:12;26.10;53.50
38464;DHT22;24243;51.956;5.902;2023-08-24T05:40:38;26.10;53.60
38464;DHT22;24243;51.956;5.902;2023-08-24T05:43:04;26.00;53.60
38464;DHT22;24243;51.956;5.902;2023-08-24T05:45:30;26.00;53.60
38464;DHT22;24243;51.956;5.902;2023-08-24T05:47:55;26.00;53.70
38464;DHT22;24243;51.956;5.902;2023-08-24T05:50:21;26.00;53.70
38464;DHT22;24243;51.956;5.902;2023-08-24T05:52:47;26.00;54.40
38464;DHT22;24243;51.956;5.902;2023-08-24T05:55:12;26.00;53.70
38464;DHT22;24243;51.956;5.902;2023-08-24T05:57:38;26.00;53.70
38464;DHT22;24243;51.956;5.902;2023-08-24T06:00:04;26.00;53.70
38464;DHT22;24243;51.956;5.902;2023-08-24T06:02:35;26.00;53.70
38464;DHT22;24243;51.956;5.902;2023-08-24T06:05:01;26.10;53.80
38464;DHT22;24243;51.956;5.902;2023-08-24T06:07:26;26.00;53.60
38464;DHT22;24243;51.956;5.902;2023-08-24T06:09:52;26.10;53.60
38464;DHT22;24243;51.956;5.902;2023-08-24T06:12:18;26.20;53.60
38464;DHT22;24243;51.956;5.902;2023-08-24T06:14:43;26.20;53.50
38464;DHT22;24243;51.956;5.902;2023-08-24T06:17:09;26.20;53.40
38464;DHT22;24243;51.956;5.902;2023-08-24T06:19:35;26.30;53.40
38464;DHT22;24243;51.956;5.902;2023-08-24T06:22:00;26.40;53.40
38464;DHT22;24243;51.956;5.902;2023-08-24T06:24:26;26.40;53.30
38464;DHT22;24243;51.956;5.902;2023-08-24T06:26:51;26.40;53.30
38464;DHT22;24243;51.956;5.902;2023-08-24T06:29:17;26.50;53.30
38464;DHT22;24243;51.956;5.902;2023-08-24T06:31:42;26.50;53.30
38464;DHT22;24243;51.956;5.902;2023-08-24T06:34:08;26.50;53.30
38464;DHT22;24243;51.956;5.902;2023-08-24T06:36:34;26.60;53.30
38464;DHT22;24243;51.956;5.902;2023-08-24T06:39:00;26.60;53.30
38464;DHT22;24243;51.956;5.902;2023-08-24T06:41:25;26.60;53.30
38464;DHT22;24243;51.956;5.902;2023-08-24T06:43:51;26.70;53.20
38464;DHT22;24243;51.956;5.902;2023-08-24T06:46:19;26.80;53.00
38464;DHT22;24243;51.956;5.902;2023-08-24T06:48:44;26.90;52.90
38464;DHT22;24243;51.956;5.902;2023-08-24T06:51:10;27.00;52.80
38464;DHT22;24243;51.956;5.902;2023-08-24T06:53:36;27.00;52.70
38464;DHT22;24243;51.956;5.902;2023-08-24T06:56:02;27.00;52.60
38464;DHT22;24243;51.956;5.902;2023-08-24T06:58:29;27.00;52.60
38464;DHT22;24243;51.956;5.902;2023-08-24T07:00:54;27.00;52.60
38464;DHT22;24243;51.956;5.902;2023-08-24T07:03:21;27.00;52.60
38464;DHT22;24243;51.956;5.902;2023-08-24T07:05:46;27.00;52.70
38464;DHT22;24243;51.956;5.902;2023-08-24T07:08:12;26.90;52.80
38464;DHT22;24243;51.956;5.902;2023-08-24T07:10:38;26.90;52.90
38464;DHT22;24243;51.956;5.902;2023-08-24T07:13:05;26.80;53.00
38464;DHT22;24243;51.956;5.902;2023-08-24T07:15:32;26.80;53.10
38464;DHT22;24243;51.956;5.902;2023-08-24T07:18:00;26.80;53.80
38464;DHT22;24243;51.956;5.902;2023-08-24T07:20:26;26.80;53.10
38464;DHT22;24243;51.956;5.902;2023-08-24T07:22:51;26.80;53.10
38464;DHT22;24243;51.956;5.902;2023-08-24T07:25:19;26.90;53.00
38464;DHT22;24243;51.956;5.902;2023-08-24T07:27:46;26.90;52.80
38464;DHT22;24243;51.956;5.902;2023-08-24T07:30:12;27.00;52.70
38464;DHT22;24243;51.956;5.902;2023-08-24T07:32:38;27.10;52.60
38464;DHT22;24243;51.956;5.902;2023-08-24T07:35:03;27.20;52.40
38464;DHT22;24243;51.956;5.902;2023-08-24T07:37:31;27.40;52.30
38464;DHT22;24243;51.956;5.902;2023-08-24T07:39:57;27.50;52.10
38464;DHT22;24243;51.956;5.902;2023-08-24T07:42:22;27.70;52.10
38464;DHT22;24243;51.956;5.902;2023-08-24T07:44:48;27.70;51.90
38464;DHT22;24243;51.956;5.902;2023-08-24T07:47:14;27.80;51.80
38464;DHT22;24243;51.956;5.902;2023-08-24T07:49:40;27.80;51.80
38464;DHT22;24243;51.956;5.902;2023-08-24T07:52:11;27.90;51.70
38464;DHT22;24243;51.956;5.902;2023-08-24T07:54:38;28.00;51.70
38464;DHT22;24243;51.956;5.902;2023-08-24T07:57:04;28.10;51.70
38464;DHT22;24243;51.956;5.902;2023-08-24T07:59:30;28.10;51.60
38464;DHT22;24243;51.956;5.902;2023-08-24T08:01:55;28.20;51.60
38464;DHT22;24243;51.956;5.902;2023-08-24T08:04:21;28.20;51.60
38464;DHT22;24243;51.956;5.902;2023-08-24T08:06:46;28.20;51.70
38464;DHT22;24243;51.956;5.902;2023-08-24T08:09:12;28.30;51.70
38464;DHT22;24243;51.956;5.902;2023-08-24T08:11:38;28.30;51.80
38464;DHT22;24243;51.956;5.902;2023-08-24T08:14:04;28.20;51.90
38464;DHT22;24243;51.956;5.902;2023-08-24T08:16:30;28.20;52.10
38464;DHT22;24243;51.956;5.902;2023-08-24T08:18:55;28.20;52.40
38464;DHT22;24243;51.956;5.902;2023-08-24T08:21:21;28.20;52.50
38464;DHT22;24243;51.956;5.902;2023-08-24T08:23:48;28.10;52.50
38464;DHT22;24243;51.956;5.902;2023-08-24T08:26:14;28.10;52.60
38464;DHT22;24243;51.956;5.902;2023-08-24T08:28:39;28.10;52.70
38464;DHT22;24243;51.956;5.902;2023-08-24T08:31:05;28.00;52.80
38464;DHT22;24243;51.956;5.902;2023-08-24T08:33:31;28.00;53.00
38464;DHT22;24243;51.956;5.902;2023-08-24T08:35:57;27.90;53.10
38464;DHT22;24243;51.956;5.902;2023-08-24T08:38:22;27.90;53.20
38464;DHT22;24243;51.956;5.902;2023-08-24T08:40:51;27.80;53.20
38464;DHT22;24243;51.956;5.902;2023-08-24T08:43:19;27.80;53.30
38464;DHT22;24243;51.956;5.902;2023-08-24T08:45:46;27.70;53.30
38464;DHT22;24243;51.956;5.902;2023-08-24T08:48:12;27.70;53.40
38464;DHT22;24243;51.956;5.902;2023-08-24T08:50:38;27.70;53.50
38464;DHT22;24243;51.956;5.902;2023-08-24T08:53:03;27.70;53.50
38464;DHT22;24243;51.956;5.902;2023-08-24T08:55:29;27.60;53.50
38464;DHT22;24243;51.956;5.902;2023-08-24T08:57:56;27.50;53.40
38464;DHT22;24243;51.956;5.902;2023-08-24T09:00:23;27.60;53.50
38464;DHT22;24243;51.956;5.902;2023-08-24T09:02:49;27.50;53.50
38464;DHT22;24243;51.956;5.902;2023-08-24T09:05:16;27.50;53.50
38464;DHT22;24243;51.956;5.902;2023-08-24T09:07:42;27.50;53.50
38464;DHT22;24243;51.956;5.902;2023-08-24T09:10:08;27.50;53.50
38464;DHT22;24243;51.956;5.902;2023-08-24T09:12:34;27.40;54.10
38464;DHT22;24243;51.956;5.902;2023-08-24T09:15:03;27.40;53.50
38464;DHT22;24243;51.956;5.902;2023-08-24T09:17:29;27.40;53.50
38464;DHT22;24243;51.956;5.902;2023-08-24T09:19:57;27.40;53.60
38464;DHT22;24243;51.956;5.902;2023-08-24T09:22:23;27.40;53.60
38464;DHT22;24243;51.956;5.902;2023-08-24T09:24:49;27.40;53.60
38464;DHT22;24243;51.956;5.902;2023-08-24T09:27:18;27.40;53.60
38464;DHT22;24243;51.956;5.902;2023-08-24T09:29:51;27.40;53.70
38464;DHT22;24243;51.956;5.902;2023-08-24T09:32:23;27.40;53.70
38464;DHT22;24243;51.956;5.902;2023-08-24T09:34:49;27.40;54.30
38464;DHT22;24243;51.956;5.902;2023-08-24T09:37:15;27.40;53.80
38464;DHT22;24243;51.956;5.902;2023-08-24T09:39:41;27.40;53.70
38464;DHT22;24243;51.956;5.902;2023-08-24T09:42:07;27.40;53.80
38464;DHT22;24243;51.956;5.902;2023-08-24T09:44:33;27.30;53.70
38464;DHT22;24243;51.956;5.902;2023-08-24T09:46:58;27.40;53.80
38464;DHT22;24243;51.956;5.902;2023-08-24T09:49:24;27.40;53.80
38464;DHT22;24243;51.956;5.902;2023-08-24T09:51:52;27.40;53.90
38464;DHT22;24243;51.956;5.902;2023-08-24T09:54:21;27.40;53.90
38464;DHT22;24243;51.956;5.902;2023-08-24T09:56:47;27.40;53.90
38464;DHT22;24243;51.956;5.902;2023-08-24T09:59:14;27.40;53.90
38464;DHT22;24243;51.956;5.902;2023-08-24T10:01:44;27.40;53.90
38464;DHT22;24243;51.956;5.902;2023-08-24T10:04:10;27.40;54.00
38464;DHT22;24243;51.956;5.902;2023-08-24T10:06:38;27.30;53.90
38464;DHT22;24243;51.956;5.902;2023-08-24T10:09:06;27.30;53.90
38464;DHT22;24243;51.956;5.902;2023-08-24T10:11:34;27.40;54.00
38464;DHT22;24243;51.956;5.902;2023-08-24T10:14:12;27.30;53.90
38464;DHT22;24243;51.956;5.902;2023-08-24T10:16:38;27.30;53.90
38464;DHT22;24243;51.956;5.902;2023-08-24T10:19:04;27.30;54.00
38464;DHT22;24243;51.956;5.902;2023-08-24T10:21:31;27.30;54.00
38464;DHT22;24243;51.956;5.902;2023-08-24T10:23:57;27.30;54.00
38464;DHT22;24243;51.956;5.902;2023-08-24T10:26:23;27.30;54.00
38464;DHT22;24243;51.956;5.902;2023-08-24T10:28:52;27.30;54.10
38464;DHT22;24243;51.956;5.902;2023-08-24T10:31:18;27.30;54.10
38464;DHT22;24243;51.956;5.902;2023-08-24T10:33:45;27.30;54.10
38464;DHT22;24243;51.956;5.902;2023-08-24T10:36:12;27.30;54.10
38464;DHT22;24243;51.956;5.902;2023-08-24T10:38:42;27.30;54.20
38464;DHT22;24243;51.956;5.902;2023-08-24T10:41:08;27.20;54.10
38464;DHT22;24243;51.956;5.902;2023-08-24T10:43:37;27.20;54.20
38464;DHT22;24243;51.956;5.902;2023-08-24T10:46:03;27.20;54.20
38464;DHT22;24243;51.956;5.902;2023-08-24T10:48:56;27.20;54.20
38464;DHT22;24243;51.956;5.902;2023-08-24T10:51:23;27.20;54.20
38464;DHT22;24243;51.956;5.902;2023-08-24T10:53:52;27.20;54.30
38464;DHT22;24243;51.956;5.902;2023-08-24T10:56:18;27.20;54.30
38464;DHT22;24243;51.956;5.902;2023-08-24T10:58:45;27.20;54.30
38464;DHT22;24243;51.956;5.902;2023-08-24T11:01:14;27.20;54.40
38464;DHT22;24243;51.956;5.902;2023-08-24T11:03:40;27.10;54.30
38464;DHT22;24243;51.956;5.902;2023-08-24T11:06:24;27.10;54.30
38464;DHT22;24243;51.956;5.902;2023-08-24T11:09:05;27.10;54.40
38464;DHT22;24243;51.956;5.902;2023-08-24T11:11:32;27.10;54.40
38464;DHT22;24243;51.956;5.902;2023-08-24T11:14:17;27.10;54.40
38464;DHT22;24243;51.956;5.902;2023-08-24T11:16:45;27.10;54.50
38464;DHT22;24243;51.956;5.902;2023-08-24T11:19:11;27.10;54.50
38464;DHT22;24243;51.956;5.902;2023-08-24T11:21:45;27.10;54.60
38464;DHT22;24243;51.956;5.902;2023-08-24T11:24:13;27.00;54.50
38464;DHT22;24243;51.956;5.902;2023-08-24T11:26:42;27.00;54.50
38464;DHT22;24243;51.956;5.902;2023-08-24T11:29:08;27.00;54.60
38464;DHT22;24243;51.956;5.902;2023-08-24T11:31:35;27.00;54.60
38464;DHT22;24243;51.956;5.902;2023-08-24T11:34:00;27.00;54.60
38464;DHT22;24243;51.956;5.902;2023-08-24T11:36:26;27.00;54.60
38464;DHT22;24243;51.956;5.902;2023-08-24T11:38:55;27.00;54.70
38464;DHT22;24243;51.956;5.902;2023-08-24T11:41:21;27.00;54.70
38464;DHT22;24243;51.956;5.902;2023-08-24T11:43:47;27.00;54.70
38464;DHT22;24243;51.956;5.902;2023-08-24T11:46:15;27.00;54.70
38464;DHT22;24243;51.956;5.902;2023-08-24T11:48:41;27.00;54.80
38464;DHT22;24243;51.956;5.902;2023-08-24T11:51:10;27.00;54.80
38464;DHT22;24243;51.956;5.902;2023-08-24T11:53:41;27.00;54.80
38464;DHT22;24243;51.956;5.902;2023-08-24T11:56:10;27.00;55.40
38464;DHT22;24243;51.956;5.902;2023-08-24T11:58:40;27.00;54.80
38464;DHT22;24243;51.956;5.902;2023-08-24T12:01:07;27.00;54.80
38464;DHT22;24243;51.956;5.902;2023-08-24T12:03:34;27.00;54.80
38464;DHT22;24243;51.956;5.902;2023-08-24T12:06:00;27.00;54.90
38464;DHT22;24243;51.956;5.902;2023-08-24T12:08:26;27.00;54.90
38464;DHT22;24243;51.956;5.902;2023-08-24T12:10:52;27.00;54.90
38464;DHT22;24243;51.956;5.902;2023-08-24T12:13:17;27.00;54.90
38464;DHT22;24243;51.956;5.902;2023-08-24T12:15:43;27.00;55.00
38464;DHT22;24243;51.956;5.902;2023-08-24T12:18:12;27.00;54.90
38464;DHT22;24243;51.956;5.902;2023-08-24T12:20:39;27.00;55.00
38464;DHT22;24243;51.956;5.902;2023-08-24T12:23:06;27.00;55.00
38464;DHT22;24243;51.956;5.902;2023-08-24T12:25:35;27.00;55.00
38464;DHT22;24243;51.956;5.902;2023-08-24T12:28:11;27.00;55.10
38464;DHT22;24243;51.956;5.902;2023-08-24T12:33:29;27.00;55.10
38464;DHT22;24243;51.956;5.902;2023-08-24T12:35:55;27.00;55.20
38464;DHT22;24243;51.956;5.902;2023-08-24T12:38:21;27.00;55.20
38464;DHT22;24243;51.956;5.902;2023-08-24T12:40:47;27.00;55.20
38464;DHT22;24243;51.956;5.902;2023-08-24T12:43:13;27.00;55.30
38464;DHT22;24243;51.956;5.902;2023-08-24T12:45:39;27.00;55.30
38464;DHT22;24243;51.956;5.902;2023-08-24T12:48:05;27.00;55.30
38464;DHT22;24243;51.956;5.902;2023-08-24T12:50:35;27.00;55.40
38464;DHT22;24243;51.956;5.902;2023-08-24T12:53:01;27.00;55.40
38464;DHT22;24243;51.956;5.902;2023-08-24T12:55:27;27.00;55.50
38464;DHT22;24243;51.956;5.902;2023-08-24T12:57:52;27.00;55.50
38464;DHT22;24243;51.956;5.902;2023-08-24T13:00:18;27.00;55.50
38464;DHT22;24243;51.956;5.902;2023-08-24T13:02:44;27.00;55.60
38464;DHT22;24243;51.956;5.902;2023-08-24T13:05:10;27.00;55.60
38464;DHT22;24243;51.956;5.902;2023-08-24T13:07:36;27.00;55.70
38464;DHT22;24243;51.956;5.902;2023-08-24T13:10:02;27.00;55.70
38464;DHT22;24243;51.956;5.902;2023-08-24T13:12:28;27.00;55.70
38464;DHT22;24243;51.956;5.902;2023-08-24T13:14:54;27.00;55.70
38464;DHT22;24243;51.956;5.902;2023-08-24T13:17:20;27.00;56.40
38464;DHT22;24243;51.956;5.902;2023-08-24T13:19:45;27.00;55.80
38464;DHT22;24243;51.956;5.902;2023-08-24T13:22:11;27.00;55.80
38464;DHT22;24243;51.956;5.902;2023-08-24T13:24:36;27.00;55.80
38464;DHT22;24243;51.956;5.902;2023-08-24T13:27:04;27.00;55.90
38464;DHT22;24243;51.956;5.902;2023-08-24T13:29:30;27.00;55.90
38464;DHT22;24243;51.956;5.902;2023-08-24T13:31:55;27.00;55.90
38464;DHT22;24243;51.956;5.902;2023-08-24T13:34:21;27.00;55.90
38464;DHT22;24243;51.956;5.902;2023-08-24T13:36:46;27.00;55.90
38464;DHT22;24243;51.956;5.902;2023-08-24T13:39:12;27.00;55.90
38464;DHT22;24243;51.956;5.902;2023-08-24T13:41:38;27.00;55.90
38464;DHT22;24243;51.956;5.902;2023-08-24T13:44:04;27.10;56.00
38464;DHT22;24243;51.956;5.902;2023-08-24T13:46:29;27.10;56.10
38464;DHT22;24243;51.956;5.902;2023-08-24T13:48:55;27.00;56.00
38464;DHT22;24243;51.956;5.902;2023-08-24T13:51:21;27.10;56.10
38464;DHT22;24243;51.956;5.902;2023-08-24T13:53:47;27.00;56.00
38464;DHT22;24243;51.956;5.902;2023-08-24T13:56:12;27.10;56.10
38464;DHT22;24243;51.956;5.902;2023-08-24T13:58:38;27.10;56.20
38464;DHT22;24243;51.956;5.902;2023-08-24T14:01:03;27.10;56.20
38464;DHT22;24243;51.956;5.902;2023-08-24T14:03:29;27.10;56.20
38464;DHT22;24243;51.956;5.902;2023-08-24T14:05:55;27.10;56.20
38464;DHT22;24243;51.956;5.902;2023-08-24T14:08:21;27.00;56.20
38464;DHT22;24243;51.956;5.902;2023-08-24T14:10:46;27.10;56.30
38464;DHT22;24243;51.956;5.902;2023-08-24T14:13:14;27.10;56.30
38464;DHT22;24243;51.956;5.902;2023-08-24T14:15:39;27.10;56.30
38464;DHT22;24243;51.956;5.902;2023-08-24T14:18:05;27.10;56.30
38464;DHT22;24243;51.956;5.902;2023-08-24T14:20:31;27.10;56.30
38464;DHT22;24243;51.956;5.902;2023-08-24T14:22:56;27.10;56.30
38464;DHT22;24243;51.956;5.902;2023-08-24T14:25:22;27.10;56.30
38464;DHT22;24243;51.956;5.902;2023-08-24T14:27:47;27.10;56.30
38464;DHT22;24243;51.956;5.902;2023-08-24T14:30:13;27.10;56.40
38464;DHT22;24243;51.956;5.902;2023-08-24T14:32:39;27.10;56.40
38464;DHT22;24243;51.956;5.902;2023-08-24T14:35:05;27.10;56.40
38464;DHT22;24243;51.956;5.902;2023-08-24T14:37:30;27.10;56.40
38464;DHT22;24243;51.956;5.902;2023-08-24T14:39:58;27.10;56.40
38464;DHT22;24243;51.956;5.902;2023-08-24T14:42:24;27.10;56.40
38464;DHT22;24243;51.956;5.902;2023-08-24T14:44:50;27.10;56.40
38464;DHT22;24243;51.956;5.902;2023-08-24T14:47:15;27.00;56.30
38464;DHT22;24243;51.956;5.902;2023-08-24T14:49:41;27.10;56.50
38464;DHT22;24243;51.956;5.902;2023-08-24T14:52:06;27.10;56.50
38464;DHT22;24243;51.956;5.902;2023-08-24T14:54:32;27.00;56.40
38464;DHT22;24243;51.956;5.902;2023-08-24T14:56:58;27.10;56.50
38464;DHT22;24243;51.956;5.902;2023-08-24T14:59:25;27.00;56.50
38464;DHT22;24243;51.956;5.902;2023-08-24T15:01:50;27.00;56.50
38464;DHT22;24243;51.956;5.902;2023-08-24T15:04:17;27.00;56.50
38464;DHT22;24243;51.956;5.902;2023-08-24T15:06:42;27.00;56.60
38464;DHT22;24243;51.956;5.902;2023-08-24T15:09:08;27.00;56.60
38464;DHT22;24243;51.956;5.902;2023-08-24T15:11:33;27.00;56.60
38464;DHT22;24243;51.956;5.902;2023-08-24T15:13:59;27.00;56.70
38464;DHT22;24243;51.956;5.902;2023-08-24T15:16:24;27.00;56.70
38464;DHT22;24243;51.956;5.902;2023-08-24T15:18:50;27.00;56.70
38464;DHT22;24243;51.956;5.902;2023-08-24T15:21:15;27.00;56.70
38464;DHT22;24243;51.956;5.902;2023-08-24T15:23:41;27.00;56.70
38464;DHT22;24243;51.956;5.902;2023-08-24T15:26:07;27.00;56.70
38464;DHT22;24243;51.956;5.902;2023-08-24T15:28:37;27.00;56.70
38464;DHT22;24243;51.956;5.902;2023-08-24T15:31:22;27.00;56.70
38464;DHT22;24243;51.956;5.902;2023-08-24T15:33:48;27.00;56.70
38464;DHT22;24243;51.956;5.902;2023-08-24T15:36:13;27.00;56.70